sensor_id;sensor_type;location;lat;lon;timestamp;P1;durP1;ratioP1;P2;durP2;ratioP2
11522;SDS011;70090;43.208;27.904;2024-01-07T00:01:39;9.77;;;5.30;;
11522;SDS011;70090;43.208;27.904;2024-01-07T00:04:06;11.57;;;6.30;;
11522;SDS011;70090;43.208;27.904;2024-01-07T00:06:33;10.30;;;6.50;;
11522;SDS011;70090;43.208;27.904;2024-01-07T00:09:00;10.50;;;5.90;;
11522;SDS011;70090;43.208;27.904;2024-01-07T00:11:28;14.73;;;6.50;;
11522;SDS011;70090;43.208;27.904;2024-01-07T00:13:55;13.43;;;6.57;;
11522;SDS011;70090;43.208;27.904;2024-01-07T00:16:22;12.17;;;6.60;;
11522;SDS011;70090;43.208;27.904;2024-01-07T00:18:49;15.93;;;6.77;;
11522;SDS011;70090;43.208;27.904;2024-01-07T00:21:16;11.43;;;6.63;;
11522;SDS011;70090;43.208;27.904;2024-01-07T00:23:43;10.67;;;6.47;;
11522;SDS011;70090;43.208;27.904;2024-01-07T00:26:10;14.03;;;6.60;;
11522;SDS011;70090;43.208;27.904;2024-01-07T00:28:39;9.67;;;6.80;;
11522;SDS011;70090;43.208;27.904;2024-01-07T00:31:06;15.70;;;6.80;;
11522;SDS011;70090;43.208;27.904;2024-01-07T00:33:34;14.83;;;7.03;;
11522;SDS011;70090;43.208;27.904;2024-01-07T00:36:02;12.80;;;6.43;;
11522;SDS011;70090;43.208;27.904;2024-01-07T00:38:30;13.07;;;6.93;;
11522;SDS011;70090;43.208;27.904;2024-01-07T00:40:57;10.60;;;6.27;;
11522;SDS011;70090;43.208;27.904;2024-01-07T00:43:24;13.23;;;6.73;;
11522;SDS011;70090;43.208;27.904;2024-01-07T00:45:53;12.23;;;6.80;;
11522;SDS011;70090;43.208;27.904;2024-01-07T00:48:20;10.47;;;6.40;;
11522;SDS011;70090;43.208;27.904;2024-01-07T00:50:47;12.20;;;6.93;;
11522;SDS011;70090;43.208;27.904;2024-01-07T00:53:14;14.67;;;6.70;;
11522;SDS011;70090;43.208;27.904;2024-01-07T00:55:41;12.10;;;6.50;;
11522;SDS011;70090;43.208;27.904;2024-01-07T00:58:08;11.77;;;6.20;;
11522;SDS011;70090;43.208;27.904;2024-01-07T01:00:35;9.87;;;6.00;;
11522;SDS011;70090;43.208;27.904;2024-01-07T01:03:03;9.53;;;5.87;;
11522;SDS011;70090;43.208;27.904;2024-01-07T01:05:30;9.47;;;5.53;;
11522;SDS011;70090;43.208;27.904;2024-01-07T01:07:57;7.70;;;5.47;;
11522;SDS011;70090;43.208;27.904;2024-01-07T01:10:24;8.70;;;5.60;;
11522;SDS011;70090;43.208;27.904;2024-01-07T01:12:51;13.10;;;6.20;;
11522;SDS011;70090;43.208;27.904;2024-01-07T01:15:19;11.33;;;6.27;;
11522;SDS011;70090;43.208;27.904;2024-01-07T01:17:46;10.07;;;5.70;;
11522;SDS011;70090;43.208;27.904;2024-01-07T01:20:15;10.57;;;6.00;;
11522;SDS011;70090;43.208;27.904;2024-01-07T01:22:42;11.53;;;5.93;;
11522;SDS011;70090;43.208;27.904;2024-01-07T01:25:09;9.83;;;5.67;;
11522;SDS011;70090;43.208;27.904;2024-01-07T01:27:36;11.23;;;4.87;;
11522;SDS011;70090;43.208;27.904;2024-01-07T01:30:03;6.67;;;4.73;;
11522;SDS011;70090;43.208;27.904;2024-01-07T01:32:31;9.40;;;5.10;;
11522;SDS011;70090;43.208;27.904;2024-01-07T01:34:58;9.53;;;5.17;;
11522;SDS011;70090;43.208;27.904;2024-01-07T01:37:27;9.57;;;5.57;;
11522;SDS011;70090;43.208;27.904;2024-01-07T01:39:54;9.97;;;5.40;;
11522;SDS011;70090;43.208;27.904;2024-01-07T01:42:21;6.47;;;4.93;;
11522;SDS011;70090;43.208;27.904;2024-01-07T01:44:48;10.43;;;5.47;;
11522;SDS011;70090;43.208;27.904;2024-01-07T01:47:15;9.30;;;5.30;;
11522;SDS011;70090;43.208;27.904;2024-01-07T01:49:43;9.63;;;5.47;;
11522;SDS011;70090;43.208;27.904;2024-01-07T01:52:12;10.70;;;6.10;;
11522;SDS011;70090;43.208;27.904;2024-01-07T01:54:41;8.50;;;5.50;;
11522;SDS011;70090;43.208;27.904;2024-01-07T01:57:08;11.63;;;5.60;;
11522;SDS011;70090;43.208;27.904;2024-01-07T01:59:40;14.23;;;6.37;;
11522;SDS011;70090;43.208;27.904;2024-01-07T02:02:09;10.30;;;6.43;;
11522;SDS011;70090;43.208;27.904;2024-01-07T02:04:36;12.17;;;7.00;;
11522;SDS011;70090;43.208;27.904;2024-01-07T02:07:03;15.63;;;8.27;;
11522;SDS011;70090;43.208;27.904;2024-01-07T02:09:30;12.53;;;8.17;;
11522;SDS011;70090;43.208;27.904;2024-01-07T02:12:02;15.17;;;8.03;;
11522;SDS011;70090;43.208;27.904;2024-01-07T02:14:30;12.47;;;7.77;;
11522;SDS011;70090;43.208;27.904;2024-01-07T02:16:57;16.93;;;7.93;;
11522;SDS011;70090;43.208;27.904;2024-01-07T02:19:24;11.83;;;7.60;;
11522;SDS011;70090;43.208;27.904;2024-01-07T02:21:51;13.60;;;7.70;;
11522;SDS011;70090;43.208;27.904;2024-01-07T02:24:19;13.13;;;7.77;;
11522;SDS011;70090;43.208;27.904;2024-01-07T02:26:48;13.67;;;7.83;;
11522;SDS011;70090;43.208;27.904;2024-01-07T02:29:15;14.80;;;8.10;;
11522;SDS011;70090;43.208;27.904;2024-01-07T02:31:42;11.23;;;6.67;;
11522;SDS011;70090;43.208;27.904;2024-01-07T02:34:09;9.83;;;6.73;;
11522;SDS011;70090;43.208;27.904;2024-01-07T02:36:36;12.33;;;6.70;;
11522;SDS011;70090;43.208;27.904;2024-01-07T02:39:03;11.70;;;6.33;;
11522;SDS011;70090;43.208;27.904;2024-01-07T02:41:31;8.87;;;6.37;;
11522;SDS011;70090;43.208;27.904;2024-01-07T02:43:58;13.10;;;6.60;;
11522;SDS011;70090;43.208;27.904;2024-01-07T02:46:24;12.93;;;6.50;;
11522;SDS011;70090;43.208;27.904;2024-01-07T02:48:51;10.73;;;6.63;;
11522;SDS011;70090;43.208;27.904;2024-01-07T02:51:18;11.13;;;6.20;;
11522;SDS011;70090;43.208;27.904;2024-01-07T02:53:45;11.10;;;6.43;;
11522;SDS011;70090;43.208;27.904;2024-01-07T02:56:12;11.47;;;6.27;;
11522;SDS011;70090;43.208;27.904;2024-01-07T02:58:41;12.30;;;7.03;;
11522;SDS011;70090;43.208;27.904;2024-01-07T03:01:08;9.53;;;6.27;;
11522;SDS011;70090;43.208;27.904;2024-01-07T03:03:35;11.87;;;6.13;;
11522;SDS011;70090;43.208;27.904;2024-01-07T03:06:03;12.93;;;6.73;;
11522;SDS011;70090;43.208;27.904;2024-01-07T03:08:30;10.17;;;6.30;;
11522;SDS011;70090;43.208;27.904;2024-01-07T03:10:57;10.93;;;6.60;;
11522;SDS011;70090;43.208;27.904;2024-01-07T03:13:24;12.67;;;6.33;;
11522;SDS011;70090;43.208;27.904;2024-01-07T03:15:53;11.37;;;6.50;;
11522;SDS011;70090;43.208;27.904;2024-01-07T03:18:20;11.23;;;6.13;;
11522;SDS011;70090;43.208;27.904;2024-01-07T03:20:47;10.13;;;6.40;;
11522;SDS011;70090;43.208;27.904;2024-01-07T03:23:14;9.40;;;6.10;;
11522;SDS011;70090;43.208;27.904;2024-01-07T03:25:41;13.50;;;6.80;;
11522;SDS011;70090;43.208;27.904;2024-01-07T03:28:08;14.20;;;6.67;;
11522;SDS011;70090;43.208;27.904;2024-01-07T03:30:35;10.80;;;6.60;;
11522;SDS011;70090;43.208;27.904;2024-01-07T03:33:03;10.70;;;6.87;;
11522;SDS011;70090;43.208;27.904;2024-01-07T03:35:31;9.40;;;6.40;;
11522;SDS011;70090;43.208;27.904;2024-01-07T03:37:58;10.60;;;6.87;;
11522;SDS011;70090;43.208;27.904;2024-01-07T03:40:25;13.93;;;7.27;;
11522;SDS011;70090;43.208;27.904;2024-01-07T03:42:52;12.20;;;6.80;;
11522;SDS011;70090;43.208;27.904;2024-01-07T03:45:19;9.40;;;6.67;;
11522;SDS011;70090;43.208;27.904;2024-01-07T03:47:46;9.63;;;6.30;;
11522;SDS011;70090;43.208;27.904;2024-01-07T03:50:14;11.37;;;6.70;;
11522;SDS011;70090;43.208;27.904;2024-01-07T03:52:41;12.63;;;7.30;;
11522;SDS011;70090;43.208;27.904;2024-01-07T03:55:08;14.70;;;6.97;;
11522;SDS011;70090;43.208;27.904;2024-01-07T03:57:36;14.70;;;7.70;;
11522;SDS011;70090;43.208;27.904;2024-01-07T04:00:03;13.93;;;7.50;;
11522;SDS011;70090;43.208;27.904;2024-01-07T04:02:31;9.97;;;6.73;;
11522;SDS011;70090;43.208;27.904;2024-01-07T04:04:58;13.83;;;7.87;;
11522;SDS011;70090;43.208;27.904;2024-01-07T04:07:26;11.60;;;7.27;;
11522;SDS011;70090;43.208;27.904;2024-01-07T04:09:53;13.47;;;7.03;;
11522;SDS011;70090;43.208;27.904;2024-01-07T04:12:20;11.83;;;6.57;;
11522;SDS011;70090;43.208;27.904;2024-01-07T04:14:47;13.83;;;6.80;;
11522;SDS011;70090;43.208;27.904;2024-01-07T04:17:14;13.03;;;6.20;;
11522;SDS011;70090;43.208;27.904;2024-01-07T04:19:41;10.57;;;6.00;;
11522;SDS011;70090;43.208;27.904;2024-01-07T04:22:08;8.47;;;5.83;;
11522;SDS011;70090;43.208;27.904;2024-01-07T04:24:40;10.77;;;6.23;;
11522;SDS011;70090;43.208;27.904;2024-01-07T04:27:07;9.17;;;6.03;;
11522;SDS011;70090;43.208;27.904;2024-01-07T04:29:34;10.57;;;6.43;;
11522;SDS011;70090;43.208;27.904;2024-01-07T04:32:01;14.00;;;6.00;;
11522;SDS011;70090;43.208;27.904;2024-01-07T04:34:28;10.53;;;5.97;;
11522;SDS011;70090;43.208;27.904;2024-01-07T04:36:55;10.37;;;6.33;;
11522;SDS011;70090;43.208;27.904;2024-01-07T04:39:22;9.77;;;5.87;;
11522;SDS011;70090;43.208;27.904;2024-01-07T04:41:50;9.13;;;6.07;;
11522;SDS011;70090;43.208;27.904;2024-01-07T04:44:17;11.60;;;6.30;;
11522;SDS011;70090;43.208;27.904;2024-01-07T04:46:45;9.00;;;6.20;;
11522;SDS011;70090;43.208;27.904;2024-01-07T04:49:12;9.63;;;6.30;;
11522;SDS011;70090;43.208;27.904;2024-01-07T04:51:39;9.37;;;6.30;;
11522;SDS011;70090;43.208;27.904;2024-01-07T04:54:06;12.10;;;6.13;;
11522;SDS011;70090;43.208;27.904;2024-01-07T04:56:33;11.00;;;6.83;;
11522;SDS011;70090;43.208;27.904;2024-01-07T04:59:01;12.60;;;6.53;;
11522;SDS011;70090;43.208;27.904;2024-01-07T05:01:28;12.30;;;6.27;;
11522;SDS011;70090;43.208;27.904;2024-01-07T05:03:55;10.87;;;6.93;;
11522;SDS011;70090;43.208;27.904;2024-01-07T05:06:22;11.80;;;7.23;;
11522;SDS011;70090;43.208;27.904;2024-01-07T05:08:49;13.03;;;6.90;;
11522;SDS011;70090;43.208;27.904;2024-01-07T05:11:16;9.80;;;6.43;;
11522;SDS011;70090;43.208;27.904;2024-01-07T05:13:43;11.07;;;6.93;;
11522;SDS011;70090;43.208;27.904;2024-01-07T05:16:18;12.03;;;6.80;;
11522;SDS011;70090;43.208;27.904;2024-01-07T05:18:45;19.13;;;12.47;;
11522;SDS011;70090;43.208;27.904;2024-01-07T05:21:13;13.67;;;7.70;;
11522;SDS011;70090;43.208;27.904;2024-01-07T05:23:41;17.07;;;8.87;;
11522;SDS011;70090;43.208;27.904;2024-01-07T05:26:08;13.23;;;7.53;;
11522;SDS011;70090;43.208;27.904;2024-01-07T05:28:36;12.43;;;7.10;;
11522;SDS011;70090;43.208;27.904;2024-01-07T05:31:02;11.40;;;6.63;;
11522;SDS011;70090;43.208;27.904;2024-01-07T05:33:30;13.67;;;7.03;;
11522;SDS011;70090;43.208;27.904;2024-01-07T05:35:58;10.87;;;6.50;;
11522;SDS011;70090;43.208;27.904;2024-01-07T05:38:25;14.40;;;7.20;;
11522;SDS011;70090;43.208;27.904;2024-01-07T05:40:51;11.30;;;6.40;;
11522;SDS011;70090;43.208;27.904;2024-01-07T05:43:18;14.23;;;7.03;;
11522;SDS011;70090;43.208;27.904;2024-01-07T05:45:45;14.27;;;7.37;;
11522;SDS011;70090;43.208;27.904;2024-01-07T05:48:12;11.77;;;6.83;;
11522;SDS011;70090;43.208;27.904;2024-01-07T05:50:41;14.27;;;7.47;;
11522;SDS011;70090;43.208;27.904;2024-01-07T05:53:08;11.33;;;7.03;;
11522;SDS011;70090;43.208;27.904;2024-01-07T05:55:35;14.67;;;6.90;;
11522;SDS011;70090;43.208;27.904;2024-01-07T05:58:02;12.80;;;6.87;;
11522;SDS011;70090;43.208;27.904;2024-01-07T06:00:30;11.60;;;7.27;;
11522;SDS011;70090;43.208;27.904;2024-01-07T06:02:57;12.10;;;7.37;;
11522;SDS011;70090;43.208;27.904;2024-01-07T06:05:24;14.27;;;6.80;;
11522;SDS011;70090;43.208;27.904;2024-01-07T06:07:52;13.33;;;7.17;;
11522;SDS011;70090;43.208;27.904;2024-01-07T06:10:19;10.00;;;6.53;;
11522;SDS011;70090;43.208;27.904;2024-01-07T06:12:46;9.63;;;6.37;;
11522;SDS011;70090;43.208;27.904;2024-01-07T06:15:13;11.43;;;6.43;;
11522;SDS011;70090;43.208;27.904;2024-01-07T06:17:41;10.57;;;6.50;;
11522;SDS011;70090;43.208;27.904;2024-01-07T06:20:08;13.57;;;7.20;;
11522;SDS011;70090;43.208;27.904;2024-01-07T06:22:35;10.47;;;6.30;;
11522;SDS011;70090;43.208;27.904;2024-01-07T06:25:04;11.57;;;6.83;;
11522;SDS011;70090;43.208;27.904;2024-01-07T06:27:32;12.80;;;6.73;;
11522;SDS011;70090;43.208;27.904;2024-01-07T06:29:59;9.47;;;6.27;;
11522;SDS011;70090;43.208;27.904;2024-01-07T06:32:26;11.43;;;6.13;;
11522;SDS011;70090;43.208;27.904;2024-01-07T06:34:53;13.80;;;6.70;;
11522;SDS011;70090;43.208;27.904;2024-01-07T06:37:20;12.50;;;6.93;;
11522;SDS011;70090;43.208;27.904;2024-01-07T06:39:47;11.90;;;7.10;;
11522;SDS011;70090;43.208;27.904;2024-01-07T06:42:16;10.30;;;6.80;;
11522;SDS011;70090;43.208;27.904;2024-01-07T06:44:43;12.40;;;6.80;;
11522;SDS011;70090;43.208;27.904;2024-01-07T06:47:10;12.87;;;7.43;;
11522;SDS011;70090;43.208;27.904;2024-01-07T06:49:37;10.93;;;6.57;;
11522;SDS011;70090;43.208;27.904;2024-01-07T06:52:05;10.60;;;6.07;;
11522;SDS011;70090;43.208;27.904;2024-01-07T06:54:32;10.40;;;5.83;;
11522;SDS011;70090;43.208;27.904;2024-01-07T06:56:59;9.10;;;5.73;;
11522;SDS011;70090;43.208;27.904;2024-01-07T06:59:27;12.00;;;6.23;;
11522;SDS011;70090;43.208;27.904;2024-01-07T07:01:54;9.80;;;5.77;;
11522;SDS011;70090;43.208;27.904;2024-01-07T07:04:22;12.53;;;5.60;;
11522;SDS011;70090;43.208;27.904;2024-01-07T07:06:49;9.30;;;5.90;;
11522;SDS011;70090;43.208;27.904;2024-01-07T07:09:16;10.90;;;5.20;;
11522;SDS011;70090;43.208;27.904;2024-01-07T07:11:44;11.57;;;5.60;;
11522;SDS011;70090;43.208;27.904;2024-01-07T07:14:11;9.93;;;5.60;;
11522;SDS011;70090;43.208;27.904;2024-01-07T07:16:39;13.53;;;6.17;;
11522;SDS011;70090;43.208;27.904;2024-01-07T07:19:06;11.67;;;6.57;;
11522;SDS011;70090;43.208;27.904;2024-01-07T07:21:33;12.33;;;5.67;;
11522;SDS011;70090;43.208;27.904;2024-01-07T07:24:00;11.20;;;5.70;;
11522;SDS011;70090;43.208;27.904;2024-01-07T07:26:27;10.07;;;5.20;;
11522;SDS011;70090;43.208;27.904;2024-01-07T07:28:54;11.30;;;5.53;;
11522;SDS011;70090;43.208;27.904;2024-01-07T07:31:21;10.80;;;5.77;;
11522;SDS011;70090;43.208;27.904;2024-01-07T07:33:50;12.50;;;6.40;;
11522;SDS011;70090;43.208;27.904;2024-01-07T07:36:17;8.40;;;4.80;;
11522;SDS011;70090;43.208;27.904;2024-01-07T07:38:44;6.40;;;4.20;;
11522;SDS011;70090;43.208;27.904;2024-01-07T07:41:11;7.67;;;4.27;;
11522;SDS011;70090;43.208;27.904;2024-01-07T07:43:38;6.70;;;4.07;;
11522;SDS011;70090;43.208;27.904;2024-01-07T07:46:05;7.83;;;3.83;;
11522;SDS011;70090;43.208;27.904;2024-01-07T07:48:32;7.17;;;4.20;;
11522;SDS011;70090;43.208;27.904;2024-01-07T07:51:01;5.63;;;3.70;;
11522;SDS011;70090;43.208;27.904;2024-01-07T07:53:28;7.00;;;3.57;;
11522;SDS011;70090;43.208;27.904;2024-01-07T07:55:55;6.53;;;4.17;;
11522;SDS011;70090;43.208;27.904;2024-01-07T07:58:22;5.87;;;4.10;;
11522;SDS011;70090;43.208;27.904;2024-01-07T08:00:49;9.00;;;4.37;;
11522;SDS011;70090;43.208;27.904;2024-01-07T08:03:16;10.47;;;4.27;;
11522;SDS011;70090;43.208;27.904;2024-01-07T08:05:43;9.17;;;3.90;;
11522;SDS011;70090;43.208;27.904;2024-01-07T08:08:12;9.93;;;4.03;;
11522;SDS011;70090;43.208;27.904;2024-01-07T08:10:39;8.57;;;3.87;;
11522;SDS011;70090;43.208;27.904;2024-01-07T08:13:06;6.93;;;3.00;;
11522;SDS011;70090;43.208;27.904;2024-01-07T08:15:34;4.73;;;3.00;;
11522;SDS011;70090;43.208;27.904;2024-01-07T08:18:03;5.23;;;2.60;;
11522;SDS011;70090;43.208;27.904;2024-01-07T08:20:30;5.13;;;2.57;;
11522;SDS011;70090;43.208;27.904;2024-01-07T08:22:57;5.03;;;2.40;;
11522;SDS011;70090;43.208;27.904;2024-01-07T08:25:26;4.10;;;1.80;;
11522;SDS011;70090;43.208;27.904;2024-01-07T08:27:54;5.87;;;2.00;;
11522;SDS011;70090;43.208;27.904;2024-01-07T08:30:21;5.60;;;2.50;;
11522;SDS011;70090;43.208;27.904;2024-01-07T08:32:48;4.07;;;1.60;;
11522;SDS011;70090;43.208;27.904;2024-01-07T08:35:16;5.77;;;2.03;;
11522;SDS011;70090;43.208;27.904;2024-01-07T08:37:43;3.80;;;1.60;;
11522;SDS011;70090;43.208;27.904;2024-01-07T08:40:10;5.70;;;1.90;;
11522;SDS011;70090;43.208;27.904;2024-01-07T08:42:40;3.73;;;1.50;;
11522;SDS011;70090;43.208;27.904;2024-01-07T08:45:07;4.80;;;1.80;;
11522;SDS011;70090;43.208;27.904;2024-01-07T08:47:35;7.37;;;1.83;;
11522;SDS011;70090;43.208;27.904;2024-01-07T08:50:02;5.03;;;1.90;;
11522;SDS011;70090;43.208;27.904;2024-01-07T08:52:29;3.87;;;1.83;;
11522;SDS011;70090;43.208;27.904;2024-01-07T08:54:56;5.83;;;2.00;;
11522;SDS011;70090;43.208;27.904;2024-01-07T08:57:23;4.87;;;1.97;;
11522;SDS011;70090;43.208;27.904;2024-01-07T08:59:52;7.47;;;1.90;;
11522;SDS011;70090;43.208;27.904;2024-01-07T09:02:19;6.33;;;2.30;;
11522;SDS011;70090;43.208;27.904;2024-01-07T09:04:46;7.27;;;2.43;;
11522;SDS011;70090;43.208;27.904;2024-01-07T09:07:13;7.17;;;2.10;;
11522;SDS011;70090;43.208;27.904;2024-01-07T09:09:41;10.07;;;2.23;;
11522;SDS011;70090;43.208;27.904;2024-01-07T09:12:09;9.43;;;2.60;;
11522;SDS011;70090;43.208;27.904;2024-01-07T09:14:37;12.97;;;2.20;;
11522;SDS011;70090;43.208;27.904;2024-01-07T09:17:05;7.90;;;2.30;;
11522;SDS011;70090;43.208;27.904;2024-01-07T09:19:32;10.77;;;2.63;;
11522;SDS011;70090;43.208;27.904;2024-01-07T09:21:59;11.43;;;2.50;;
11522;SDS011;70090;43.208;27.904;2024-01-07T09:24:27;10.23;;;3.10;;
11522;SDS011;70090;43.208;27.904;2024-01-07T09:26:54;10.57;;;2.60;;
11522;SDS011;70090;43.208;27.904;2024-01-07T09:29:22;13.57;;;3.37;;
11522;SDS011;70090;43.208;27.904;2024-01-07T09:31:49;9.73;;;3.13;;
11522;SDS011;70090;43.208;27.904;2024-01-07T09:34:17;10.30;;;2.90;;
11522;SDS011;70090;43.208;27.904;2024-01-07T09:36:44;16.03;;;3.20;;
11522;SDS011;70090;43.208;27.904;2024-01-07T09:39:11;15.77;;;3.63;;
11522;SDS011;70090;43.208;27.904;2024-01-07T09:41:38;13.53;;;4.17;;
11522;SDS011;70090;43.208;27.904;2024-01-07T09:44:06;15.77;;;4.17;;
11522;SDS011;70090;43.208;27.904;2024-01-07T09:46:34;14.23;;;4.00;;
11522;SDS011;70090;43.208;27.904;2024-01-07T09:49:06;16.30;;;4.70;;
11522;SDS011;70090;43.208;27.904;2024-01-07T09:51:35;20.37;;;4.93;;
11522;SDS011;70090;43.208;27.904;2024-01-07T09:54:03;17.70;;;4.20;;
11522;SDS011;70090;43.208;27.904;2024-01-07T09:56:34;17.40;;;4.30;;
11522;SDS011;70090;43.208;27.904;2024-01-07T09:59:07;19.50;;;4.27;;
11522;SDS011;70090;43.208;27.904;2024-01-07T10:01:34;20.07;;;4.70;;
11522;SDS011;70090;43.208;27.904;2024-01-07T10:04:02;20.80;;;8.23;;
11522;SDS011;70090;43.208;27.904;2024-01-07T10:06:30;17.50;;;5.27;;
11522;SDS011;70090;43.208;27.904;2024-01-07T10:08:59;17.70;;;6.37;;
11522;SDS011;70090;43.208;27.904;2024-01-07T10:11:26;17.73;;;4.93;;
11522;SDS011;70090;43.208;27.904;2024-01-07T10:13:53;20.37;;;4.63;;
11522;SDS011;70090;43.208;27.904;2024-01-07T10:16:20;15.73;;;4.53;;
11522;SDS011;70090;43.208;27.904;2024-01-07T10:18:47;19.40;;;5.13;;
11522;SDS011;70090;43.208;27.904;2024-01-07T10:21:14;21.33;;;4.37;;
11522;SDS011;70090;43.208;27.904;2024-01-07T10:23:41;18.03;;;4.97;;
11522;SDS011;70090;43.208;27.904;2024-01-07T10:26:10;19.13;;;4.90;;
11522;SDS011;70090;43.208;27.904;2024-01-07T10:28:37;25.03;;;4.53;;
11522;SDS011;70090;43.208;27.904;2024-01-07T10:31:05;18.63;;;4.43;;
11522;SDS011;70090;43.208;27.904;2024-01-07T10:33:32;17.07;;;4.40;;
11522;SDS011;70090;43.208;27.904;2024-01-07T10:36:01;23.97;;;4.40;;
11522;SDS011;70090;43.208;27.904;2024-01-07T10:38:31;23.50;;;5.00;;
11522;SDS011;70090;43.208;27.904;2024-01-07T10:40:59;25.67;;;5.10;;
11522;SDS011;70090;43.208;27.904;2024-01-07T10:43:29;23.20;;;5.50;;
11522;SDS011;70090;43.208;27.904;2024-01-07T10:45:56;25.90;;;4.60;;
11522;SDS011;70090;43.208;27.904;2024-01-07T10:48:27;23.47;;;5.57;;
11522;SDS011;70090;43.208;27.904;2024-01-07T10:50:57;19.50;;;4.60;;
11522;SDS011;70090;43.208;27.904;2024-01-07T10:53:27;23.20;;;5.10;;
11522;SDS011;70090;43.208;27.904;2024-01-07T10:56:00;23.00;;;5.10;;
11522;SDS011;70090;43.208;27.904;2024-01-07T10:58:31;23.40;;;4.90;;
11522;SDS011;70090;43.208;27.904;2024-01-07T11:00:59;26.23;;;5.50;;
11522;SDS011;70090;43.208;27.904;2024-01-07T11:03:31;27.60;;;4.87;;
11522;SDS011;70090;43.208;27.904;2024-01-07T11:06:07;19.87;;;5.43;;
11522;SDS011;70090;43.208;27.904;2024-01-07T11:08:43;25.73;;;6.20;;
11522;SDS011;70090;43.208;27.904;2024-01-07T11:11:18;23.07;;;5.13;;
11522;SDS011;70090;43.208;27.904;2024-01-07T11:13:53;25.27;;;5.40;;
11522;SDS011;70090;43.208;27.904;2024-01-07T11:19:08;22.77;;;5.37;;
11522;SDS011;70090;43.208;27.904;2024-01-07T11:21:36;27.33;;;5.50;;
11522;SDS011;70090;43.208;27.904;2024-01-07T11:24:03;21.50;;;4.83;;
11522;SDS011;70090;43.208;27.904;2024-01-07T11:26:30;16.20;;;4.33;;
11522;SDS011;70090;43.208;27.904;2024-01-07T11:28:59;20.67;;;5.37;;
11522;SDS011;70090;43.208;27.904;2024-01-07T11:37:09;17.83;;;4.97;;
11522;SDS011;70090;43.208;27.904;2024-01-07T11:39:37;25.37;;;6.10;;
11522;SDS011;70090;43.208;27.904;2024-01-07T11:42:04;26.20;;;5.30;;
11522;SDS011;70090;43.208;27.904;2024-01-07T11:44:35;22.07;;;5.43;;
11522;SDS011;70090;43.208;27.904;2024-01-07T11:47:03;24.27;;;5.50;;
11522;SDS011;70090;43.208;27.904;2024-01-07T11:49:31;28.07;;;6.80;;
11522;SDS011;70090;43.208;27.904;2024-01-07T11:51:59;22.97;;;6.10;;
11522;SDS011;70090;43.208;27.904;2024-01-07T11:54:27;29.10;;;6.90;;
11522;SDS011;70090;43.208;27.904;2024-01-07T11:56:54;27.97;;;7.20;;
11522;SDS011;70090;43.208;27.904;2024-01-07T11:59:22;27.20;;;7.80;;
11522;SDS011;70090;43.208;27.904;2024-01-07T12:01:50;24.27;;;8.27;;
11522;SDS011;70090;43.208;27.904;2024-01-07T12:04:17;20.67;;;5.90;;
11522;SDS011;70090;43.208;27.904;2024-01-07T12:06:47;25.27;;;6.23;;
11522;SDS011;70090;43.208;27.904;2024-01-07T12:09:14;19.57;;;5.23;;
11522;SDS011;70090;43.208;27.904;2024-01-07T12:11:42;25.10;;;5.63;;
11522;SDS011;70090;43.208;27.904;2024-01-07T12:14:10;23.77;;;5.97;;
11522;SDS011;70090;43.208;27.904;2024-01-07T12:16:38;25.67;;;5.80;;
11522;SDS011;70090;43.208;27.904;2024-01-07T12:19:07;22.60;;;6.03;;
11522;SDS011;70090;43.208;27.904;2024-01-07T12:21:35;21.53;;;5.30;;
11522;SDS011;70090;43.208;27.904;2024-01-07T12:24:03;25.07;;;5.90;;
11522;SDS011;70090;43.208;27.904;2024-01-07T12:26:30;21.57;;;6.07;;
11522;SDS011;70090;43.208;27.904;2024-01-07T12:28:58;20.67;;;6.23;;
11522;SDS011;70090;43.208;27.904;2024-01-07T12:31:29;22.83;;;6.27;;
11522;SDS011;70090;43.208;27.904;2024-01-07T12:33:56;22.17;;;5.43;;
11522;SDS011;70090;43.208;27.904;2024-01-07T12:36:25;25.13;;;5.67;;
11522;SDS011;70090;43.208;27.904;2024-01-07T12:38:53;21.13;;;5.50;;
11522;SDS011;70090;43.208;27.904;2024-01-07T12:41:20;24.63;;;6.57;;
11522;SDS011;70090;43.208;27.904;2024-01-07T12:43:48;30.30;;;8.67;;
11522;SDS011;70090;43.208;27.904;2024-01-07T12:46:15;26.83;;;7.20;;
11522;SDS011;70090;43.208;27.904;2024-01-07T12:48:42;28.80;;;8.43;;
11522;SDS011;70090;43.208;27.904;2024-01-07T12:51:09;27.80;;;7.00;;
11522;SDS011;70090;43.208;27.904;2024-01-07T12:53:38;23.03;;;6.03;;
11522;SDS011;70090;43.208;27.904;2024-01-07T12:56:05;22.77;;;6.90;;
11522;SDS011;70090;43.208;27.904;2024-01-07T12:58:32;23.67;;;7.33;;
11522;SDS011;70090;43.208;27.904;2024-01-07T13:01:00;25.10;;;6.90;;
11522;SDS011;70090;43.208;27.904;2024-01-07T13:03:27;26.73;;;6.60;;
11522;SDS011;70090;43.208;27.904;2024-01-07T13:05:55;26.80;;;7.57;;
11522;SDS011;70090;43.208;27.904;2024-01-07T13:08:22;26.57;;;8.13;;
11522;SDS011;70090;43.208;27.904;2024-01-07T13:10:52;22.70;;;6.17;;
11522;SDS011;70090;43.208;27.904;2024-01-07T13:13:20;24.97;;;6.17;;
11522;SDS011;70090;43.208;27.904;2024-01-07T13:15:47;23.50;;;6.40;;
11522;SDS011;70090;43.208;27.904;2024-01-07T13:18:16;26.73;;;5.60;;
11522;SDS011;70090;43.208;27.904;2024-01-07T13:20:43;26.20;;;5.93;;
11522;SDS011;70090;43.208;27.904;2024-01-07T13:23:10;21.97;;;6.20;;
11522;SDS011;70090;43.208;27.904;2024-01-07T13:25:37;21.07;;;5.80;;
11522;SDS011;70090;43.208;27.904;2024-01-07T13:28:06;18.77;;;4.30;;
11522;SDS011;70090;43.208;27.904;2024-01-07T13:30:36;24.00;;;5.03;;
11522;SDS011;70090;43.208;27.904;2024-01-07T13:33:05;23.87;;;6.20;;
11522;SDS011;70090;43.208;27.904;2024-01-07T13:35:33;25.10;;;5.50;;
11522;SDS011;70090;43.208;27.904;2024-01-07T13:38:00;24.00;;;6.00;;
11522;SDS011;70090;43.208;27.904;2024-01-07T13:40:27;22.17;;;5.63;;
11522;SDS011;70090;43.208;27.904;2024-01-07T13:42:54;25.70;;;6.77;;
11522;SDS011;70090;43.208;27.904;2024-01-07T13:45:23;28.10;;;7.30;;
11522;SDS011;70090;43.208;27.904;2024-01-07T13:47:50;28.73;;;6.63;;
11522;SDS011;70090;43.208;27.904;2024-01-07T13:50:17;27.43;;;7.17;;
11522;SDS011;70090;43.208;27.904;2024-01-07T13:52:44;30.70;;;7.93;;
11522;SDS011;70090;43.208;27.904;2024-01-07T13:55:11;31.20;;;7.07;;
11522;SDS011;70090;43.208;27.904;2024-01-07T13:57:38;30.13;;;7.70;;
11522;SDS011;70090;43.208;27.904;2024-01-07T14:00:07;28.27;;;7.77;;
11522;SDS011;70090;43.208;27.904;2024-01-07T14:02:36;21.83;;;7.67;;
11522;SDS011;70090;43.208;27.904;2024-01-07T14:05:04;28.60;;;7.80;;
11522;SDS011;70090;43.208;27.904;2024-01-07T14:07:34;25.57;;;7.30;;
11522;SDS011;70090;43.208;27.904;2024-01-07T14:10:01;21.67;;;6.80;;
11522;SDS011;70090;43.208;27.904;2024-01-07T14:12:29;25.03;;;6.70;;
11522;SDS011;70090;43.208;27.904;2024-01-07T14:14:56;26.50;;;7.40;;
11522;SDS011;70090;43.208;27.904;2024-01-07T14:17:24;36.07;;;8.00;;
11522;SDS011;70090;43.208;27.904;2024-01-07T14:19:52;29.97;;;7.83;;
11522;SDS011;70090;43.208;27.904;2024-01-07T14:22:20;31.43;;;7.57;;
11522;SDS011;70090;43.208;27.904;2024-01-07T14:24:47;29.47;;;8.03;;
11522;SDS011;70090;43.208;27.904;2024-01-07T14:27:14;34.43;;;8.33;;
11522;SDS011;70090;43.208;27.904;2024-01-07T14:29:41;28.40;;;8.40;;
11522;SDS011;70090;43.208;27.904;2024-01-07T14:32:09;31.20;;;7.33;;
11522;SDS011;70090;43.208;27.904;2024-01-07T14:34:37;26.23;;;7.53;;